Time;durP1;ratioP1;P1;durP2;ratioP2;P2;SDS_P1;SDS_P2;PMS_P1;PMS_P2;Temp;Humidity;BMP_temperature;BMP_pressure;BME280_temperature;BME280_humidity;BME280_pressure;Samples;Min_cycle;Max_cycle;Signal;HPM_P1;HPM_P2
2022/04/07 00:05:00;;;;;;;2.17;1.05;;;;;;;19.86;46.14;95241.44;10277202;28;20569;-57
2022/04/07 00:10:21;;;;;;;1.48;1.20;;;;;;;19.87;46.16;95246.47;10280869;28;20500;-58
2022/04/07 00:15:40;;;;;;;1.80;1.20;;;;;;;19.85;46.12;95235.25;10282099;28;20054;-57
2022/04/07 00:21:02;;;;;;;1.88;1.27;;;;;;;19.83;45.98;95237.53;10282003;28;20541;-57
2022/04/07 00:26:21;;;;;;;1.58;1.10;;;;;;;19.83;46.00;95231.34;10284316;28;20055;-58
2022/04/07 00:31:42;;;;;;;1.30;1.20;;;;;;;19.81;45.89;95225.53;10299471;28;20043;-57
2022/04/07 00:37:02;;;;;;;2.40;1.58;;;;;;;19.82;45.96;95221.69;10280126;28;20047;-57
2022/04/07 00:42:22;;;;;;;1.90;1.15;;;;;;;19.78;45.72;95213.53;10280445;28;20418;-57
2022/04/07 00:47:42;;;;;;;1.60;1.20;;;;;;;19.78;45.79;95205.44;10300862;28;20042;-55
2022/04/07 00:53:02;;;;;;;1.25;1.10;;;;;;;19.77;45.65;95197.69;10271076;28;20051;-57
2022/04/07 00:58:22;;;;;;;1.70;1.30;;;;;;;19.74;45.66;95199.19;10271312;28;20051;-54
2022/04/07 01:03:42;;;;;;;1.58;1.10;;;;;;;19.74;45.59;95194.56;10290383;28;20123;-55
2022/04/07 01:09:01;;;;;;;2.17;1.10;;;;;;;19.74;45.63;95180.28;10305247;28;20478;-58
2022/04/07 01:14:21;;;;;;;2.22;1.23;;;;;;;19.72;45.57;95179.88;10303309;28;20097;-56
2022/04/07 01:19:41;;;;;;;1.38;1.10;;;;;;;19.71;45.64;95180.97;10292580;28;20477;-57
2022/04/07 01:25:00;;;;;;;1.58;1.13;;;;;;;19.68;45.65;95182.47;10293744;28;20697;-57
2022/04/07 01:30:20;;;;;;;1.45;1.20;;;;;;;19.69;45.66;95186.72;10303652;28;20038;-57
2022/04/07 01:35:39;;;;;;;1.35;1.05;;;;;;;19.69;45.60;95191.38;10300876;28;20058;-57
2022/04/07 01:40:59;;;;;;;1.15;0.80;;;;;;;19.68;45.53;95197.91;10277087;28;20055;-57
2022/04/07 01:46:19;;;;;;;1.42;1.13;;;;;;;19.66;45.51;95186.66;10286760;28;20750;-57
2022/04/07 01:51:39;;;;;;;1.20;1.00;;;;;;;19.65;45.41;95193.22;10272995;28;20070;-57
2022/04/07 01:56:59;;;;;;;2.15;1.10;;;;;;;19.64;45.40;95178.94;10294202;28;20042;-57
2022/04/07 02:02:19;;;;;;;1.80;1.00;;;;;;;19.63;45.36;95171.22;10290188;28;20514;-56
2022/04/07 02:07:40;;;;;;;1.25;1.00;;;;;;;19.63;45.23;95163.09;10273005;28;20051;-57
2022/04/07 02:12:59;;;;;;;1.58;1.00;;;;;;;19.60;45.26;95151.13;10288413;28;20051;-57
2022/04/07 02:18:19;;;;;;;1.00;0.90;;;;;;;19.60;45.16;95153.00;10291127;28;20096;-57
2022/04/07 02:23:44;;;;;;;1.40;1.00;;;;;;;19.59;45.16;95151.47;10291808;28;20051;-57
2022/04/07 02:29:03;;;;;;;1.10;0.80;;;;;;;19.57;45.14;95151.81;10290139;28;20058;-56
2022/04/07 02:34:22;;;;;;;1.15;1.00;;;;;;;19.55;45.08;95141.38;10286974;28;20525;-57
2022/04/07 02:39:42;;;;;;;0.98;0.80;;;;;;;19.55;45.11;95137.91;10289768;28;20055;-57
2022/04/07 02:45:01;;;;;;;1.25;0.95;;;;;;;19.54;45.15;95141.75;10289175;28;20391;-55
2022/04/07 02:50:21;;;;;;;1.05;0.80;;;;;;;19.54;45.00;95136.34;10290301;28;20479;-57
2022/04/07 02:55:40;;;;;;;1.10;1.00;;;;;;;19.52;44.96;95139.44;10290985;28;20711;-57
2022/04/07 03:01:00;;;;;;;0.93;0.82;;;;;;;19.52;44.98;95125.13;10301279;28;20104;-57
2022/04/07 03:06:19;;;;;;;0.90;0.90;;;;;;;19.51;45.06;95132.44;10287098;28;20051;-55
2022/04/07 03:11:39;;;;;;;1.08;0.90;;;;;;;19.50;45.01;95120.09;10299799;28;20549;-57
2022/04/07 03:16:58;;;;;;;1.63;0.90;;;;;;;19.48;44.94;95119.69;10301619;28;20602;-57
2022/04/07 03:22:19;;;;;;;1.17;0.80;;;;;;;19.49;44.95;95115.84;10287206;28;20408;-58
2022/04/07 03:27:38;;;;;;;1.05;0.90;;;;;;;19.46;44.97;95107.66;10286609;28;20059;-57
2022/04/07 03:32:58;;;;;;;0.90;0.85;;;;;;;19.46;44.79;95102.28;10299954;28;20049;-57
2022/04/07 03:38:18;;;;;;;1.02;0.90;;;;;;;19.44;44.72;95102.63;10287067;28;20058;-57
2022/04/07 03:43:37;;;;;;;1.40;1.00;;;;;;;19.43;44.67;95098.38;10301268;28;20097;-57
2022/04/07 03:48:57;;;;;;;1.05;0.80;;;;;;;19.42;44.64;95102.22;10292815;28;20042;-57
2022/04/07 03:54:17;;;;;;;1.08;0.90;;;;;;;19.42;44.76;95107.63;10287089;28;20055;-57
2022/04/07 03:59:38;;;;;;;0.80;0.80;;;;;;;19.40;44.65;95096.41;10286680;28;20059;-57
2022/04/07 04:04:57;;;;;;;0.82;0.77;;;;;;;19.39;44.65;95089.47;10282750;28;20051;-56
2022/04/07 04:10:17;;;;;;;0.60;0.60;;;;;;;19.39;44.65;95088.69;10275466;28;20055;-57
2022/04/07 04:15:37;;;;;;;1.13;1.02;;;;;;;19.39;44.99;95092.16;10286101;28;20102;-57
2022/04/07 04:20:56;;;;;;;2.92;1.08;;;;;;;19.40;45.44;95076.72;10285398;28;20059;-58
2022/04/07 04:26:16;;;;;;;2.33;0.80;;;;;;;19.40;45.16;95072.09;10275026;28;20066;-57
2022/04/07 04:31:35;;;;;;;1.02;0.98;;;;;;;19.42;45.34;95082.53;10285812;28;20055;-58
2022/04/07 04:36:54;;;;;;;2.10;0.80;;;;;;;19.43;45.51;95076.78;10289123;28;20058;-57
2022/04/07 04:42:13;;;;;;;1.10;0.90;;;;;;;19.45;45.64;95071.78;10283936;28;20062;-57
2022/04/07 04:47:34;;;;;;;1.30;0.90;;;;;;;19.49;45.49;95063.75;10296357;28;20062;-57
2022/04/07 04:52:53;;;;;;;1.00;0.90;;;;;;;19.51;45.67;95064.16;10274214;28;20051;-57
2022/04/07 04:58:14;;;;;;;1.15;0.90;;;;;;;19.53;45.67;95068.03;10306802;28;20043;-58
2022/04/07 05:03:33;;;;;;;2.20;0.80;;;;;;;19.54;45.04;95068.81;10293601;28;20058;-57
2022/04/07 05:08:53;;;;;;;1.92;1.10;;;;;;;18.96;38.39;95059.91;10299006;28;20051;-58
2022/04/07 05:14:12;;;;;;;1.50;1.40;;;;;;;-146.19;100.00;65364.44;10294221;28;20051;-59
2022/04/07 05:19:32;;;;;;;6.63;1.92;;;;;;;18.40;40.63;95067.78;10306601;28;20053;-57
2022/04/07 05:24:52;;;;;;;7.70;2.63;;;;;;;18.81;40.29;95060.03;10286854;28;20059;-58
2022/04/07 05:30:18;;;;;;;11.40;3.85;;;;;;;19.05;41.34;95062.38;10287946;28;20057;-57
2022/04/07 05:35:37;;;;;;;9.55;3.42;;;;;;;19.22;41.23;95063.75;10290277;28;20075;-58
2022/04/07 05:40:57;;;;;;;9.68;3.13;;;;;;;19.33;41.18;95066.63;10312461;28;20049;-58
2022/04/07 05:46:16;;;;;;;7.70;3.28;;;;;;;19.42;41.32;95074.44;10277450;28;20462;-55
2022/04/07 05:51:37;;;;;;;9.27;3.17;;;;;;;19.51;41.34;95072.25;10269428;28;20467;-57
2022/04/07 05:56:56;;;;;;;7.88;3.10;;;;;;;19.55;41.27;95060.34;10288873;28;20105;-57
2022/04/07 06:02:16;;;;;;;6.72;2.80;;;;;;;19.61;41.46;95068.16;10294154;28;20051;-58
2022/04/07 06:07:36;;;;;;;7.22;2.95;;;;;;;19.64;41.43;95038.47;10290599;28;20102;-58
2022/04/07 06:12:56;;;;;;;7.95;3.00;;;;;;;19.68;41.65;95049.31;10292770;28;20616;-57
2022/04/07 06:18:16;;;;;;;8.50;3.03;;;;;;;19.70;41.64;95041.63;10281109;28;20047;-56
2022/04/07 06:23:36;;;;;;;7.95;2.80;;;;;;;19.72;41.63;95033.97;10285253;28;20054;-58
2022/04/07 06:28:55;;;;;;;6.63;2.83;;;;;;;19.73;41.71;95019.31;10286683;28;20142;-58
2022/04/07 06:34:15;;;;;;;6.57;2.80;;;;;;;19.77;41.80;95011.25;10289810;28;20059;-57
2022/04/07 06:39:34;;;;;;;4.72;2.70;;;;;;;19.77;41.87;95012.03;10291182;28;20079;-57
2022/04/07 06:44:57;;;;;;;6.00;2.88;;;;;;;19.78;41.87;95010.88;10298968;28;20043;-57
2022/04/07 06:50:17;;;;;;;5.22;2.70;;;;;;;19.80;41.98;95003.19;10291313;28;20502;-58
2022/04/07 06:55:37;;;;;;;6.65;2.58;;;;;;;19.80;42.01;95005.09;10285854;28;20047;-56
2022/04/07 07:00:57;;;;;;;6.55;2.42;;;;;;;19.81;42.16;94999.31;10287558;28;20062;-56
2022/04/07 07:06:17;;;;;;;6.55;2.60;;;;;;;19.83;42.75;94980.81;10286217;28;20078;-56
2022/04/07 07:11:36;;;;;;;6.95;2.40;;;;;;;19.84;43.33;94979.69;10304345;28;20494;-57
2022/04/07 07:16:55;;;;;;;5.68;2.65;;;;;;;19.85;43.57;94969.66;10300504;28;20047;-57
2022/04/07 07:22:15;;;;;;;4.57;2.42;;;;;;;19.84;43.92;94960.00;10300910;28;20043;-57
2022/04/07 07:27:45;;;;;;;4.63;2.50;;;;;;;19.85;44.23;94961.53;10287099;28;20710;-57
2022/04/07 07:33:05;;;;;;;3.63;2.05;;;;;;;19.87;44.57;94965.41;10283118;28;20043;-57
2022/04/07 07:38:25;;;;;;;5.07;2.20;;;;;;;19.87;44.90;94957.31;10287884;28;20806;-57
2022/04/07 07:43:44;;;;;;;3.25;2.15;;;;;;;19.89;45.04;94962.34;10300924;28;20043;-55
2022/04/07 07:49:06;;;;;;;3.60;2.00;;;;;;;19.88;45.18;94960.81;10286265;28;20093;-57
2022/04/07 07:54:25;;;;;;;4.68;2.33;;;;;;;19.88;45.36;94956.19;10281693;28;20622;-57
2022/04/07 07:59:45;;;;;;;3.83;2.08;;;;;;;19.88;45.53;94966.22;10287725;28;20057;-55
2022/04/07 08:05:06;;;;;;;5.15;2.28;;;;;;;19.88;45.48;94968.91;10298775;28;20046;-57
2022/04/07 08:10:25;;;;;;;3.83;2.10;;;;;;;19.88;45.67;94983.19;10325356;28;20479;-57
2022/04/07 08:15:45;;;;;;;3.90;1.85;;;;;;;19.88;45.71;94958.09;10272112;28;20050;-57
2022/04/07 08:21:04;;;;;;;4.60;2.03;;;;;;;19.88;45.67;94958.88;10299504;28;20216;-54
2022/04/07 08:26:24;;;;;;;3.72;2.00;;;;;;;19.89;45.73;94957.72;10287956;28;20058;-57
2022/04/07 08:31:44;;;;;;;4.68;1.98;;;;;;;19.89;45.84;94952.31;10279497;28;20124;-57
2022/04/07 08:37:04;;;;;;;4.25;2.20;;;;;;;19.90;45.41;94934.19;10285026;28;20047;-57
2022/04/07 08:42:25;;;;;;;4.88;2.30;;;;;;;19.90;45.75;94905.22;10289124;28;20711;-56
2022/04/07 08:47:48;;;;;;;3.63;1.75;;;;;;;19.90;45.49;94916.03;10287611;28;20047;-56
2022/04/07 08:53:08;;;;;;;3.30;1.90;;;;;;;19.88;45.42;94915.63;10287380;28;20066;-57
2022/04/07 08:58:28;;;;;;;3.70;2.00;;;;;;;19.89;45.48;94905.59;10288862;28;20077;-57
2022/04/07 09:03:48;;;;;;;4.10;2.20;;;;;;;19.89;45.16;94898.25;10288832;28;20059;-56
2022/04/07 09:09:12;;;;;;;3.08;1.80;;;;;;;19.88;45.27;94880.50;10281927;28;20047;-57
2022/04/07 09:14:36;;;;;;;4.95;2.00;;;;;;;19.89;45.22;94890.16;10301302;28;20046;-55
2022/04/07 09:19:55;;;;;;;3.22;1.52;;;;;;;19.88;45.00;94864.28;10289709;28;20055;-56
2022/04/07 09:25:14;;;;;;;3.38;1.90;;;;;;;19.88;45.06;94874.34;10295195;28;20143;-57
2022/04/07 09:30:37;;;;;;;4.03;1.75;;;;;;;19.88;45.09;94867.00;10295117;28;20058;-57
2022/04/07 09:36:05;;;;;;;2.80;1.42;;;;;;;19.89;44.96;94851.56;10284873;28;20074;-56
2022/04/07 09:41:27;;;;;;;4.40;1.65;;;;;;;19.88;44.75;94826.47;10254887;29;20055;-57
2022/04/07 09:46:47;;;;;;;4.38;1.85;;;;;;;19.88;44.82;94823.00;10269000;28;20039;-57
2022/04/07 09:52:07;;;;;;;3.55;1.48;;;;;;;19.87;44.69;94824.13;10328106;28;20435;-57
2022/04/07 09:57:28;;;;;;;2.33;1.40;;;;;;;19.86;44.72;94807.16;10294647;28;20618;-57
2022/04/07 10:02:48;;;;;;;2.70;1.70;;;;;;;19.87;44.51;94773.56;10294457;28;20055;-56
2022/04/07 10:08:07;;;;;;;2.53;1.60;;;;;;;19.86;44.56;94752.34;10306972;28;20043;-57
2022/04/07 10:13:29;;;;;;;2.22;1.38;;;;;;;19.86;44.49;94755.81;10306898;28;20050;-57
2022/04/07 10:18:57;;;;;;;3.20;1.67;;;;;;;19.84;44.32;94758.13;10293236;28;20101;-57
2022/04/07 10:24:25;;;;;;;1.85;1.33;;;;;;;19.85;44.38;94756.19;10278977;28;20659;-56
2022/04/07 10:30:13;;;;;;;2.22;1.38;;;;;;;19.84;44.42;94752.72;10289200;28;20054;-57
2022/04/07 10:35:36;;;;;;;2.38;1.52;;;;;;;19.85;44.36;94739.97;10292310;28;20417;-57
2022/04/07 10:41:01;;;;;;;2.95;1.70;;;;;;;19.83;44.19;94713.31;10293308;28;20054;-57
2022/04/07 10:46:20;;;;;;;2.40;1.52;;;;;;;19.83;44.31;94699.03;10292899;28;20043;-57
2022/04/07 10:51:57;;;;;;;2.33;1.30;;;;;;;19.83;44.19;94697.09;10295394;28;20055;-57
2022/04/07 10:57:17;;;;;;;2.72;1.40;;;;;;;19.83;44.03;94694.41;10292460;28;20051;-57
2022/04/07 11:02:37;;;;;;;1.83;1.20;;;;;;;19.82;44.03;94681.28;10292144;28;20054;-56
2022/04/07 11:07:56;;;;;;;3.15;1.67;;;;;;;19.80;43.98;94661.94;10291901;28;20055;-57
2022/04/07 11:13:16;;;;;;;2.17;1.30;;;;;;;19.80;44.12;94651.16;10291695;28;20066;-57
2022/04/07 11:18:45;;;;;;;2.25;1.30;;;;;;;19.80;43.92;94659.25;10297932;28;20482;-56
2022/04/07 11:24:07;;;;;;;1.63;1.20;;;;;;;19.79;43.92;94647.69;10291175;28;20469;-55
2022/04/07 11:29:34;;;;;;;2.75;1.40;;;;;;;19.79;43.87;94628.75;10290248;28;20059;-54
2022/04/07 11:34:53;;;;;;;1.42;1.20;;;;;;;19.79;43.83;94617.97;10303002;28;20047;-57
2022/04/07 11:40:13;;;;;;;2.15;1.25;;;;;;;19.78;43.93;94600.22;10260535;28;20058;-57
2022/04/07 11:45:33;;;;;;;1.60;1.13;;;;;;;19.77;43.85;94595.94;10302860;28;20410;-54
2022/04/07 11:50:52;;;;;;;1.45;1.10;;;;;;;19.77;43.88;94595.94;10311391;28;20047;-57
2022/04/07 11:56:12;;;;;;;1.85;1.20;;;;;;;19.77;43.78;94595.94;10303048;28;20055;-56
2022/04/07 12:01:32;;;;;;;2.17;1.30;;;;;;;19.77;43.92;94592.47;10289925;28;20486;-57
2022/04/07 12:06:52;;;;;;;1.33;1.00;;;;;;;19.74;43.64;94578.59;10259612;28;20048;-57
2022/04/07 12:12:12;;;;;;;1.58;1.10;;;;;;;19.74;43.66;94591.31;10266461;28;20062;-57
2022/04/07 12:17:33;;;;;;;2.88;1.10;;;;;;;19.73;43.66;94589.75;10272814;28;20074;-54
2022/04/07 12:23:25;;;;;;;2.25;1.10;;;;;;;19.73;43.81;94593.22;10287121;28;20527;-54
2022/04/07 12:28:44;;;;;;;2.17;1.10;;;;;;;19.73;43.67;94565.44;10283007;28;20057;-57
2022/04/07 12:34:12;;;;;;;2.17;1.20;;;;;;;19.71;43.75;94557.72;10289265;28;20062;-57
2022/04/07 12:39:35;;;;;;;2.35;1.70;;;;;;;19.71;43.73;94532.59;10301753;28;20101;-56
2022/04/07 12:45:08;;;;;;;2.33;1.30;;;;;;;19.71;43.78;94513.69;10288954;28;20494;-56
2022/04/07 12:50:28;;;;;;;1.30;0.98;;;;;;;19.70;43.65;94485.16;10289605;28;20508;-57
2022/04/07 12:55:48;;;;;;;1.75;1.00;;;;;;;19.69;43.58;94484.34;10291641;28;20059;-56
2022/04/07 13:01:08;;;;;;;1.33;1.00;;;;;;;19.69;43.67;94480.88;10309435;28;20047;-57
2022/04/07 13:06:27;;;;;;;1.15;0.90;;;;;;;19.69;43.58;94478.19;10290190;28;20576;-57
2022/04/07 13:11:47;;;;;;;0.98;0.80;;;;;;;19.68;43.47;94487.44;10300558;28;20562;-57
2022/04/07 13:17:06;;;;;;;1.25;0.90;;;;;;;19.67;43.58;94475.88;10296098;28;20106;-57
2022/04/07 13:22:26;;;;;;;2.38;1.00;;;;;;;19.66;43.58;94455.44;10295739;28;20061;-57
2022/04/07 13:27:45;;;;;;;2.53;1.00;;;;;;;19.65;43.55;94445.00;10295725;28;20051;-55
2022/04/07 13:33:05;;;;;;;1.10;0.90;;;;;;;19.65;43.43;94434.19;10308499;28;20059;-57
2022/04/07 13:38:25;;;;;;;1.00;0.80;;;;;;;19.64;43.56;94413.72;10308085;28;20046;-56
2022/04/07 13:43:44;;;;;;;1.58;1.00;;;;;;;19.63;43.56;94407.56;10295424;28;20101;-55
2022/04/07 13:49:04;;;;;;;1.35;1.00;;;;;;;19.63;43.42;94393.28;10293414;28;20506;-57
2022/04/07 13:54:24;;;;;;;0.95;0.80;;;;;;;19.62;43.50;94384.41;10295042;28;20417;-56
2022/04/07 13:59:43;;;;;;;1.45;1.08;;;;;;;19.61;43.47;94385.56;10294619;28;20058;-57
2022/04/07 14:05:05;;;;;;;1.70;0.93;;;;;;;19.61;43.43;94379.41;10306230;28;20039;-56
2022/04/07 14:10:24;;;;;;;1.15;0.80;;;;;;;19.60;43.56;94377.84;10294209;28;20054;-57
2022/04/07 14:15:45;;;;;;;1.10;0.80;;;;;;;19.59;43.56;94358.16;10306870;28;20063;-57
2022/04/07 14:21:06;;;;;;;1.15;0.75;;;;;;;19.58;43.14;94342.34;10293242;28;20057;-57
2022/04/07 14:26:26;;;;;;;1.75;0.70;;;;;;;19.55;43.37;94336.56;10297184;28;20055;-56
2022/04/07 14:31:46;;;;;;;1.45;0.98;;;;;;;19.56;43.52;94330.00;10290718;28;20059;-54
2022/04/07 14:37:05;;;;;;;1.25;0.65;;;;;;;19.55;43.39;94325.75;10291029;28;20058;-56
2022/04/07 14:42:25;;;;;;;1.35;0.80;;;;;;;19.54;43.59;94308.00;10291032;28;20399;-54
2022/04/07 14:47:44;;;;;;;0.80;0.70;;;;;;;19.54;43.38;94302.63;10290250;28;20079;-57
2022/04/07 14:53:05;;;;;;;1.40;0.90;;;;;;;19.53;43.45;94292.97;10251103;28;20066;-57
2022/04/07 14:58:25;;;;;;;0.95;0.77;;;;;;;19.53;43.53;94278.69;10290654;28;20070;-57
2022/04/07 15:03:44;;;;;;;0.82;0.60;;;;;;;19.52;43.49;94264.44;10290197;28;20089;-54
2022/04/07 15:09:03;;;;;;;1.05;0.85;;;;;;;19.51;43.41;94267.50;10263516;28;20053;-54
2022/04/07 15:14:23;;;;;;;0.82;0.70;;;;;;;19.52;43.42;94252.81;10288441;28;20118;-57
2022/04/07 15:19:43;;;;;;;0.60;0.60;;;;;;;19.51;43.42;94257.47;10289325;28;20057;-54
2022/04/07 15:25:03;;;;;;;0.80;0.57;;;;;;;19.50;43.54;94255.16;10248458;28;1173074;-56
2022/04/07 15:30:23;;;;;;;0.85;0.70;;;;;;;19.50;43.54;94241.66;10290315;28;20051;-57
2022/04/07 15:35:43;;;;;;;0.70;0.70;;;;;;;19.50;43.43;94239.75;10303349;28;20093;-56
2022/04/07 15:41:09;;;;;;;0.60;0.50;;;;;;;19.49;43.77;94221.22;10303344;28;20490;-57
2022/04/07 15:46:31;;;;;;;0.95;0.80;;;;;;;19.50;43.34;94217.34;10290360;28;20606;-54
2022/04/07 15:51:50;;;;;;;0.70;0.70;;;;;;;19.50;43.49;94234.34;10290179;28;20055;-54
2022/04/07 15:57:11;;;;;;;1.52;0.70;;;;;;;19.51;43.48;94233.16;10290087;28;20171;-56
2022/04/07 16:02:30;;;;;;;0.60;0.55;;;;;;;19.51;43.48;94218.91;10275477;28;20125;-56
2022/04/07 16:07:49;;;;;;;1.05;0.60;;;;;;;19.52;43.39;94186.13;10301761;28;20158;-55
2022/04/07 16:13:09;;;;;;;0.73;0.68;;;;;;;19.54;43.33;94189.19;10289093;28;20055;-57
2022/04/07 16:18:29;;;;;;;0.85;0.63;;;;;;;19.55;43.39;94188.03;10289295;28;20125;-56
2022/04/07 16:23:49;;;;;;;2.63;0.68;;;;;;;19.58;43.59;94177.59;10275759;28;20110;-58
2022/04/07 16:29:09;;;;;;;1.20;0.70;;;;;;;19.62;43.90;94175.66;10262371;28;20101;-53
2022/04/07 16:34:29;;;;;;;3.67;0.70;;;;;;;19.63;44.34;94167.19;10285579;28;20043;-52
2022/04/07 16:39:48;;;;;;;2.67;0.70;;;;;;;19.64;44.69;94160.63;10288535;28;20074;-61
2022/04/07 16:45:08;;;;;;;3.58;0.70;;;;;;;19.67;44.82;94164.47;10283146;28;20088;-53
2022/04/07 16:50:28;;;;;;;2.90;0.55;;;;;;;19.71;45.02;94166.03;10283415;28;20506;-58
2022/04/07 16:55:48;;;;;;;0.90;0.63;;;;;;;19.74;44.88;94149.06;10289507;28;20053;-58
2022/04/07 17:01:08;;;;;;;2.20;0.52;;;;;;;19.75;45.01;94155.22;10286836;28;20681;-58
2022/04/07 17:06:28;;;;;;;0.82;0.60;;;;;;;19.77;44.79;94154.84;10282022;28;20525;-57
2022/04/07 17:11:53;;;;;;;1.98;0.60;;;;;;;19.79;44.67;94164.09;10282307;28;20426;-56
2022/04/07 17:17:13;;;;;;;1.48;0.50;;;;;;;19.81;44.73;94167.19;10274952;28;20181;-57
2022/04/07 17:22:33;;;;;;;0.93;0.55;;;;;;;19.84;44.70;94149.44;10281047;28;20066;-56
2022/04/07 17:27:54;;;;;;;2.08;0.52;;;;;;;19.85;44.71;94173.34;10283753;28;20059;-58
2022/04/07 17:33:14;;;;;;;1.95;0.80;;;;;;;19.89;44.76;94178.75;10284305;28;20059;-62
2022/04/07 17:38:33;;;;;;;0.70;0.47;;;;;;;19.91;44.87;94208.84;10271279;28;20076;-58
2022/04/07 17:43:54;;;;;;;0.93;0.50;;;;;;;19.94;44.84;94191.88;10297967;28;20051;-50
2022/04/07 17:49:13;;;;;;;1.15;0.50;;;;;;;19.95;44.92;94215.81;10288516;28;20057;-51
2022/04/07 17:54:32;;;;;;;2.33;0.60;;;;;;;19.99;44.81;94198.81;10277028;28;20058;-53
2022/04/07 17:59:52;;;;;;;1.20;0.60;;;;;;;20.01;44.85;94221.56;10305016;28;20517;-52
2022/04/07 18:05:12;;;;;;;2.17;0.50;;;;;;;20.02;44.88;94225.06;10304266;28;20047;-50
2022/04/07 18:10:31;;;;;;;1.00;0.52;;;;;;;20.03;44.88;94221.97;10303895;28;20070;-50
2022/04/07 18:15:52;;;;;;;2.22;0.68;;;;;;;20.05;44.86;94233.16;10305761;28;20058;-50
2022/04/07 18:21:12;;;;;;;1.20;0.60;;;;;;;20.07;44.77;94221.94;10289701;28;20556;-56
2022/04/07 18:26:33;;;;;;;2.40;0.63;;;;;;;20.07;45.07;94230.03;10287470;28;20063;-57
2022/04/07 18:31:52;;;;;;;2.67;0.73;;;;;;;20.08;44.87;94239.72;10291528;28;20054;-58
2022/04/07 18:37:12;;;;;;;1.75;0.65;;;;;;;20.08;44.85;94248.59;10288850;28;20105;-58
2022/04/07 18:42:32;;;;;;;3.08;0.70;;;;;;;20.08;44.95;94262.09;10285010;28;20545;-56
2022/04/07 18:47:53;;;;;;;1.08;0.63;;;;;;;20.09;44.89;94262.84;10287134;28;20864;-58
2022/04/07 18:53:19;;;;;;;4.13;0.50;;;;;;;20.10;44.99;94256.31;10297611;28;20050;-58
2022/04/07 18:58:43;;;;;;;1.50;0.65;;;;;;;20.10;45.05;94277.94;10288587;28;20067;-58
2022/04/07 19:04:02;;;;;;;1.17;0.50;;;;;;;20.10;44.96;94273.28;10285159;28;20065;-58
2022/04/07 19:09:22;;;;;;;1.55;0.45;;;;;;;20.10;45.00;94259.78;10300305;28;20121;-58
2022/04/07 19:14:42;;;;;;;0.90;0.50;;;;;;;20.11;44.97;94264.03;10297267;28;20050;-58
2022/04/07 19:20:03;;;;;;;1.30;0.50;;;;;;;20.11;45.07;94287.56;10283862;28;20050;-54
2022/04/07 19:25:22;;;;;;;2.15;0.50;;;;;;;20.12;45.06;94299.94;10284300;28;20042;-52
2022/04/07 19:30:43;;;;;;;1.10;0.77;;;;;;;20.11;45.05;94299.16;10288578;28;20187;-53
2022/04/07 19:36:02;;;;;;;1.73;0.52;;;;;;;20.11;45.08;94298.38;10287563;28;20050;-55
2022/04/07 19:41:22;;;;;;;2.17;0.70;;;;;;;20.12;45.11;94300.69;10290084;28;20533;-54
2022/04/07 19:46:41;;;;;;;1.02;0.43;;;;;;;20.12;45.25;94302.63;10289348;28;20113;-57
2022/04/07 19:52:02;;;;;;;3.15;0.63;;;;;;;20.11;45.47;94299.16;10300482;28;20646;-58
2022/04/07 19:57:22;;;;;;;3.65;0.65;;;;;;;20.12;45.41;94308.03;10293983;28;20056;-56
2022/04/07 20:02:43;;;;;;;1.50;0.55;;;;;;;20.11;45.46;94320.00;10283980;28;20402;-55
2022/04/07 20:08:02;;;;;;;2.08;0.60;;;;;;;20.10;45.57;94318.47;10277572;28;20413;-58
2022/04/07 20:13:22;;;;;;;4.85;0.90;;;;;;;20.12;45.55;94333.13;10276327;28;20055;-57
2022/04/07 20:18:42;;;;;;;2.13;0.73;;;;;;;20.12;45.54;94335.06;10292637;28;20039;-57
2022/04/07 20:24:02;;;;;;;1.85;0.60;;;;;;;20.11;45.40;94366.75;10275498;28;20058;-57
2022/04/07 20:29:23;;;;;;;2.33;0.70;;;;;;;20.11;45.37;94392.97;10282136;28;20096;-58
2022/04/07 20:34:42;;;;;;;2.17;0.70;;;;;;;20.10;45.35;94408.44;10283354;28;20051;-58
2022/04/07 20:40:03;;;;;;;2.25;0.70;;;;;;;20.10;45.31;94403.03;10283773;28;20499;-57
2022/04/07 20:45:23;;;;;;;2.55;0.70;;;;;;;20.08;45.20;94437.78;10286529;28;20059;-57
2022/04/07 20:50:43;;;;;;;3.38;0.60;;;;;;;20.08;45.18;94416.16;10287524;28;20121;-57
2022/04/07 20:56:03;;;;;;;1.20;0.60;;;;;;;20.08;45.38;94439.72;10308120;28;20097;-57
2022/04/07 21:01:22;;;;;;;1.88;0.70;;;;;;;20.08;45.11;94453.22;10285874;28;20043;-57
2022/04/07 21:06:42;;;;;;;1.30;0.60;;;;;;;20.06;45.13;94442.03;10296500;28;20051;-58
2022/04/07 21:12:01;;;;;;;1.58;0.60;;;;;;;20.06;44.97;94442.03;10263840;28;20058;-57
2022/04/07 21:17:21;;;;;;;1.05;0.52;;;;;;;20.05;45.08;94456.69;10260071;28;20123;-57
2022/04/07 21:22:40;;;;;;;0.95;0.60;;;;;;;20.04;44.98;94465.97;10274372;28;20128;-58
2022/04/07 21:28:00;;;;;;;2.05;0.70;;;;;;;20.04;44.99;94471.38;10290698;28;20059;-57
2022/04/07 21:33:19;;;;;;;1.50;0.50;;;;;;;20.02;44.85;94460.16;10306837;28;20062;-57
2022/04/07 21:38:39;;;;;;;1.55;0.63;;;;;;;20.01;44.95;94485.63;10291204;28;20548;-57
2022/04/07 21:43:59;;;;;;;1.83;0.60;;;;;;;20.00;44.91;94511.91;10305585;28;20039;-57
2022/04/07 21:49:19;;;;;;;2.55;0.52;;;;;;;20.00;44.87;94503.78;10268437;28;20125;-58
2022/04/07 21:54:39;;;;;;;1.10;0.80;;;;;;;19.98;44.95;94524.25;10260749;28;20050;-58
2022/04/07 21:59:58;;;;;;;1.15;0.50;;;;;;;19.97;44.83;94536.19;10292190;28;20066;-58
2022/04/07 22:05:17;;;;;;;1.40;0.63;;;;;;;19.97;44.88;94533.50;10288306;28;20417;-57
2022/04/07 22:10:38;;;;;;;1.05;0.60;;;;;;;19.95;44.79;94542.78;10290157;28;20051;-58
2022/04/07 22:15:57;;;;;;;1.55;0.50;;;;;;;19.95;44.84;94555.50;10304189;28;20074;-56
2022/04/07 22:21:17;;;;;;;1.00;0.40;;;;;;;19.94;44.64;94548.56;10290524;28;20046;-56
2022/04/07 22:26:36;;;;;;;0.85;0.52;;;;;;;19.93;44.73;94565.91;10290372;28;20074;-58
2022/04/07 22:31:55;;;;;;;2.40;0.55;;;;;;;19.92;44.73;94580.59;10289508;28;20061;-57
2022/04/07 22:37:15;;;;;;;2.05;0.40;;;;;;;19.89;44.58;94571.28;10289791;28;20054;-58
2022/04/07 22:42:34;;;;;;;0.52;0.40;;;;;;;19.90;44.66;94591.00;10290606;28;20494;-58
2022/04/07 22:47:53;;;;;;;1.88;0.60;;;;;;;19.88;44.41;94596.00;10291286;28;20043;-56
2022/04/07 22:53:13;;;;;;;0.85;0.50;;;;;;;19.87;44.45;94587.13;10290041;28;20054;-58
2022/04/07 22:58:32;;;;;;;1.48;0.60;;;;;;;19.87;44.58;94602.56;10301526;28;20082;-58
2022/04/07 23:03:51;;;;;;;1.42;0.50;;;;;;;19.86;44.42;94609.13;10287172;28;20058;-58
2022/04/07 23:09:11;;;;;;;0.82;0.50;;;;;;;19.85;44.42;94619.16;10288159;28;20050;-58
2022/04/07 23:14:30;;;;;;;1.10;0.52;;;;;;;19.84;44.34;94625.72;10289834;28;20102;-57
2022/04/07 23:19:51;;;;;;;1.38;0.40;;;;;;;19.82;44.33;94622.63;10289130;28;20108;-57
2022/04/07 23:25:10;;;;;;;0.85;0.50;;;;;;;19.82;44.31;94614.50;10286738;28;20513;-58
2022/04/07 23:30:30;;;;;;;1.05;0.50;;;;;;;19.81;44.36;94631.88;10290862;28;20053;-57
2022/04/07 23:35:50;;;;;;;0.88;0.45;;;;;;;19.79;44.32;94644.97;10301194;28;20051;-57
2022/04/07 23:41:10;;;;;;;0.70;0.50;;;;;;;19.78;44.15;94648.84;10287453;28;20062;-57
2022/04/07 23:46:29;;;;;;;1.38;0.50;;;;;;;19.77;44.22;94638.41;10285897;28;20054;-58
2022/04/07 23:51:49;;;;;;;0.85;0.40;;;;;;;19.76;44.29;94629.53;10298134;28;20117;-57
2022/04/07 23:57:10;;;;;;;1.42;0.40;;;;;;;19.75;44.29;94641.47;10300328;28;20046;-57
